Time;durP1;ratioP1;P1;durP2;ratioP2;P2;SDS_P1;SDS_P2;PMS_P1;PMS_P2;Temp;Humidity;BMP_temperature;BMP_pressure;BME280_temperature;BME280_humidity;BME280_pressure;Samples;Min_cycle;Max_cycle;Signal;HPM_P1;HPM_P2
2021/10/25 00:00:09;;;;;;;19.38;10.52;;;4.40;99.90;;;;;;5066423;28;20479;-84
2021/10/25 00:02:34;;;;;;;14.85;10.80;;;4.40;99.90;;;;;;5054277;28;20123;-84
2021/10/25 00:05:00;;;;;;;34.20;11.18;;;4.40;99.90;;;;;;5045386;28;20037;-83
2021/10/25 00:07:26;;;;;;;20.92;11.63;;;4.50;99.90;;;;;;5060663;28;20047;-83
2021/10/25 00:09:52;;;;;;;17.70;9.82;;;4.40;99.90;;;;;;5045353;28;20041;-83
2021/10/25 00:12:17;;;;;;;21.50;11.40;;;4.40;99.90;;;;;;5058244;28;20052;-83
2021/10/25 00:14:43;;;;;;;18.90;10.50;;;4.40;99.90;;;;;;5067577;28;20106;-83
2021/10/25 00:17:09;;;;;;;21.35;10.90;;;4.40;99.90;;;;;;5068795;28;20060;-83
2021/10/25 00:19:35;;;;;;;23.15;11.18;;;4.40;99.90;;;;;;5039325;28;20049;-83
2021/10/25 00:22:01;;;;;;;20.90;11.15;;;4.40;99.90;;;;;;5066929;28;20052;-83
2021/10/25 00:24:27;;;;;;;17.45;10.80;;;4.40;99.90;;;;;;5068715;28;20082;-83
2021/10/25 00:26:53;;;;;;;16.65;11.45;;;4.40;99.90;;;;;;5069072;28;20048;-83
2021/10/25 00:29:19;;;;;;;22.10;11.05;;;4.40;99.90;;;;;;5068690;28;20115;-84
2021/10/25 00:31:45;;;;;;;18.30;11.18;;;4.30;99.90;;;;;;5067716;28;20167;-84
2021/10/25 00:34:13;;;;;;;21.38;12.48;;;4.50;99.90;;;;;;5051745;28;20056;-84
2021/10/25 00:36:40;;;;;;;22.08;11.65;;;4.30;99.90;;;;;;5055445;28;20075;-84
2021/10/25 00:39:05;;;;;;;20.40;10.52;;;4.40;99.90;;;;;;5066586;28;20047;-85
2021/10/25 00:41:31;;;;;;;22.73;11.32;;;4.30;99.90;;;;;;5052071;28;20393;-85
2021/10/25 00:43:57;;;;;;;21.13;11.55;;;4.40;99.90;;;;;;5067379;28;20445;-85
2021/10/25 00:46:24;;;;;;;20.35;11.07;;;4.40;99.90;;;;;;5068792;28;20083;-85
2021/10/25 00:48:50;;;;;;;29.20;11.68;;;4.40;99.90;;;;;;5050143;28;20044;-85
2021/10/25 00:51:16;;;;;;;24.42;11.27;;;4.30;99.90;;;;;;5068784;28;20043;-86
2021/10/25 00:53:43;;;;;;;22.65;10.57;;;4.30;99.90;;;;;;5067763;28;20074;-85
2021/10/25 00:56:09;;;;;;;22.02;11.73;;;4.30;99.90;;;;;;5067638;28;20076;-85
2021/10/25 00:58:36;;;;;;;18.88;10.40;;;4.40;99.90;;;;;;5067460;28;20076;-85
2021/10/25 01:01:02;;;;;;;23.33;13.10;;;4.40;99.90;;;;;;5067571;28;20273;-84
2021/10/25 01:03:28;;;;;;;26.02;12.02;;;4.40;99.90;;;;;;5067858;28;20044;-84
2021/10/25 01:05:55;;;;;;;20.52;11.55;;;4.40;99.90;;;;;;5067139;28;20083;-84
2021/10/25 01:08:21;;;;;;;25.27;11.90;;;4.40;99.90;;;;;;5068118;28;20038;-84
2021/10/25 01:10:47;;;;;;;21.88;12.13;;;4.30;99.90;;;;;;5057957;28;20546;-83
2021/10/25 01:13:14;;;;;;;23.58;12.75;;;4.40;99.90;;;;;;5042080;28;20331;-85
2021/10/25 01:15:40;;;;;;;21.63;12.13;;;4.40;99.90;;;;;;5056673;28;20430;-84
2021/10/25 01:18:06;;;;;;;25.25;11.95;;;4.40;99.90;;;;;;5047019;28;20574;-85
2021/10/25 01:20:32;;;;;;;20.40;11.48;;;4.40;99.90;;;;;;5051252;28;20047;-84
2021/10/25 01:23:02;;;;;;;22.90;12.15;;;4.40;99.90;;;;;;5029999;28;20049;-84
2021/10/25 01:25:29;;;;;;;18.75;11.77;;;4.40;99.90;;;;;;5047422;28;20044;-85
2021/10/25 01:27:57;;;;;;;19.40;11.93;;;4.30;99.90;;;;;;5047072;28;20053;-87
2021/10/25 01:30:22;;;;;;;22.98;11.63;;;4.50;99.90;;;;;;5049454;28;20048;-86
2021/10/25 01:32:49;;;;;;;19.23;12.00;;;4.40;99.90;;;;;;5055375;28;20056;-86
2021/10/25 01:35:16;;;;;;;22.95;11.93;;;4.30;99.90;;;;;;5046431;28;20507;-86
2021/10/25 01:37:42;;;;;;;27.35;14.23;;;4.30;99.90;;;;;;5047157;28;20064;-85
2021/10/25 01:40:11;;;;;;;24.75;12.40;;;4.30;99.90;;;;;;5046537;28;20564;-85
2021/10/25 01:42:37;;;;;;;21.02;12.30;;;4.40;99.90;;;;;;5037992;28;20544;-85
2021/10/25 01:45:04;;;;;;;19.10;12.48;;;4.20;99.90;;;;;;5046544;28;20048;-85
2021/10/25 01:47:30;;;;;;;25.65;14.10;;;4.20;99.90;;;;;;5046563;28;20120;-85
2021/10/25 01:49:56;;;;;;;25.92;14.18;;;4.20;99.90;;;;;;5047007;28;20135;-85
2021/10/25 01:52:23;;;;;;;23.65;14.85;;;4.30;99.90;;;;;;5058432;28;20052;-85
2021/10/25 01:54:49;;;;;;;23.75;13.35;;;4.30;99.90;;;;;;5053294;28;20049;-85
2021/10/25 01:57:15;;;;;;;23.52;14.65;;;4.20;99.90;;;;;;5045707;28;20028;-83
2021/10/25 01:59:40;;;;;;;23.40;14.73;;;4.20;99.90;;;;;;5047994;28;20033;-84
2021/10/25 02:02:06;;;;;;;25.50;15.10;;;4.20;99.90;;;;;;5047186;28;20090;-84
2021/10/25 02:04:33;;;;;;;25.77;14.32;;;4.20;99.90;;;;;;5046956;28;20487;-82
2021/10/25 02:06:59;;;;;;;29.00;14.40;;;4.20;99.90;;;;;;5047862;28;20040;-83
2021/10/25 02:09:25;;;;;;;26.52;14.52;;;4.20;99.90;;;;;;5048809;28;20040;-84
2021/10/25 02:11:50;;;;;;;29.33;15.27;;;4.20;99.90;;;;;;5067659;28;20513;-84
2021/10/25 02:14:16;;;;;;;30.85;13.93;;;4.20;99.90;;;;;;5065440;28;20083;-85
2021/10/25 02:16:43;;;;;;;22.42;13.40;;;4.10;99.90;;;;;;5066318;28;20052;-85
2021/10/25 02:19:09;;;;;;;21.85;13.27;;;4.00;99.90;;;;;;5082782;28;20037;-85
2021/10/25 02:21:35;;;;;;;22.00;13.88;;;4.00;99.90;;;;;;5066189;28;20162;-82
2021/10/25 02:24:01;;;;;;;26.75;14.40;;;4.00;99.90;;;;;;5065610;28;20028;-84
2021/10/25 02:26:27;;;;;;;24.58;13.75;;;4.00;99.90;;;;;;5066498;28;20044;-84
2021/10/25 02:28:53;;;;;;;23.58;13.25;;;4.00;99.90;;;;;;5049696;28;20520;-83
2021/10/25 02:31:19;;;;;;;28.67;15.07;;;3.90;99.90;;;;;;5066993;28;20083;-83
2021/10/25 02:33:44;;;;;;;30.08;13.75;;;3.90;99.90;;;;;;5065268;28;20043;-83
2021/10/25 02:36:10;;;;;;;32.05;15.00;;;4.00;99.90;;;;;;5065100;28;20189;-83
2021/10/25 02:38:37;;;;;;;28.75;15.57;;;3.90;99.90;;;;;;5065431;28;20032;-84
2021/10/25 02:41:07;;;;;;;26.65;15.43;;;4.00;99.90;;;;;;5065783;28;20045;-84
2021/10/25 02:43:34;;;;;;;25.20;14.48;;;4.00;99.90;;;;;;5049417;28;20135;-83
2021/10/25 02:46:00;;;;;;;30.00;15.77;;;4.00;99.90;;;;;;5067564;28;20048;-83
2021/10/25 02:48:26;;;;;;;30.35;14.85;;;4.10;99.90;;;;;;5056849;28;20032;-83
2021/10/25 02:50:53;;;;;;;28.90;16.30;;;3.90;99.90;;;;;;5066900;28;20382;-83
2021/10/25 02:53:20;;;;;;;28.67;16.75;;;4.00;99.90;;;;;;5064719;28;20049;-83
2021/10/25 02:55:47;;;;;;;24.52;15.02;;;4.10;99.90;;;;;;5067054;28;20045;-82
2021/10/25 02:58:14;;;;;;;34.05;18.20;;;4.10;99.90;;;;;;5065034;28;20059;-83
2021/10/25 03:00:39;;;;;;;28.10;15.55;;;4.00;99.90;;;;;;5065542;28;20462;-82
2021/10/25 03:03:05;;;;;;;26.90;16.23;;;4.10;99.90;;;;;;5065167;28;20052;-83
2021/10/25 03:05:31;;;;;;;27.30;16.52;;;4.00;99.90;;;;;;5065144;28;20198;-83
2021/10/25 03:07:57;;;;;;;30.52;16.42;;;4.10;99.90;;;;;;5065459;28;20576;-83
2021/10/25 03:10:23;;;;;;;30.60;17.85;;;4.00;99.90;;;;;;5038855;28;20127;-82
2021/10/25 03:12:49;;;;;;;30.33;16.45;;;3.90;99.90;;;;;;5076295;28;20052;-83
2021/10/25 03:15:16;;;;;;;33.58;17.75;;;4.00;99.90;;;;;;5065595;28;20087;-84
2021/10/25 03:17:43;;;;;;;23.58;15.73;;;3.90;99.90;;;;;;5065581;28;20127;-83
2021/10/25 03:20:11;;;;;;;23.75;14.82;;;3.80;99.90;;;;;;5065102;28;20052;-84
2021/10/25 03:22:37;;;;;;;31.25;15.85;;;3.80;99.90;;;;;;5065365;28;20063;-84
2021/10/25 03:25:04;;;;;;;28.88;15.35;;;3.80;99.90;;;;;;5048549;28;20514;-84
2021/10/25 03:27:30;;;;;;;28.85;16.58;;;3.80;99.90;;;;;;5064814;28;20068;-84
2021/10/25 03:29:56;;;;;;;29.83;15.45;;;3.80;99.90;;;;;;5065552;28;20055;-84
2021/10/25 03:32:23;;;;;;;23.30;15.07;;;3.80;99.90;;;;;;5065855;28;20063;-84
2021/10/25 03:34:49;;;;;;;28.45;15.45;;;3.90;99.90;;;;;;5066163;28;20040;-84
2021/10/25 03:37:16;;;;;;;37.22;16.17;;;3.80;99.90;;;;;;5064911;28;20052;-83
2021/10/25 03:39:44;;;;;;;29.10;15.70;;;3.80;99.90;;;;;;5064580;28;20129;-84
2021/10/25 03:42:22;;;;;;;33.67;17.83;;;3.90;99.90;;;;;;5049145;28;20486;-85
2021/10/25 03:44:54;;;;;;;30.98;17.10;;;4.00;99.90;;;;;;5062905;28;20044;-85
2021/10/25 03:47:28;;;;;;;30.90;17.02;;;4.00;99.90;;;;;;5065444;28;20036;-85
2021/10/25 03:52:33;;;;;;;28.23;15.98;;;3.90;99.90;;;;;;5065471;28;20041;-85
2021/10/25 03:55:13;;;;;;;27.42;15.73;;;3.90;99.90;;;;;;5034777;28;20407;-85
2021/10/25 04:25:22;;;;;;;32.30;17.40;;;4.10;99.90;;;;;;5065388;28;20044;-84
2021/10/25 04:27:48;;;;;;;31.42;17.25;;;4.10;99.90;;;;;;5063707;28;20098;-83
2021/10/25 04:30:15;;;;;;;35.95;18.52;;;4.10;99.90;;;;;;5049402;28;20040;-83
2021/10/25 04:32:41;;;;;;;29.27;18.08;;;4.30;99.90;;;;;;5063983;28;20477;-82
2021/10/25 04:35:07;;;;;;;33.35;18.17;;;4.20;99.90;;;;;;5064639;28;20049;-83
2021/10/25 04:37:34;;;;;;;40.75;18.35;;;4.30;99.90;;;;;;5063978;28;20041;-84
2021/10/25 04:40:00;;;;;;;36.45;19.98;;;4.30;99.90;;;;;;5064323;28;20072;-84
2021/10/25 04:42:25;;;;;;;35.00;18.92;;;4.40;99.90;;;;;;5064923;28;20083;-84
2021/10/25 04:44:52;;;;;;;31.58;18.13;;;4.30;99.90;;;;;;5063555;28;20048;-84
2021/10/25 04:47:18;;;;;;;31.25;17.85;;;4.40;99.90;;;;;;5064241;28;20045;-84
2021/10/25 04:49:44;;;;;;;31.83;18.73;;;4.40;99.90;;;;;;5062956;28;20067;-84
2021/10/25 04:52:10;;;;;;;35.60;18.00;;;4.30;99.90;;;;;;5064779;28;20639;-84
2021/10/25 04:54:37;;;;;;;32.05;16.75;;;4.50;99.90;;;;;;5063630;28;20048;-83
2021/10/25 04:57:03;;;;;;;32.88;17.20;;;4.30;99.90;;;;;;5066409;28;20454;-83
2021/10/25 04:59:29;;;;;;;31.80;17.27;;;4.50;99.90;;;;;;5050311;28;20097;-83
2021/10/25 05:01:55;;;;;;;30.27;17.80;;;4.40;99.90;;;;;;5060810;28;20060;-84
2021/10/25 05:04:21;;;;;;;26.80;17.45;;;4.40;99.90;;;;;;5068503;28;20040;-84
2021/10/25 05:06:48;;;;;;;36.50;18.55;;;4.50;99.90;;;;;;5066688;28;20131;-83
2021/10/25 05:09:14;;;;;;;31.80;17.77;;;4.60;99.90;;;;;;5067939;28;20047;-83
2021/10/25 05:11:40;;;;;;;33.30;18.02;;;4.60;99.90;;;;;;5052983;28;20097;-83
2021/10/25 05:14:07;;;;;;;31.13;17.13;;;4.70;99.90;;;;;;5067404;28;20139;-83
2021/10/25 05:16:33;;;;;;;28.45;16.67;;;4.60;99.90;;;;;;5050876;28;20095;-87
2021/10/25 05:18:58;;;;;;;30.38;16.65;;;4.60;99.90;;;;;;5067160;28;20565;-87
2021/10/25 05:21:24;;;;;;;33.72;17.70;;;4.70;99.90;;;;;;5067827;28;20068;-84
2021/10/25 05:23:50;;;;;;;31.77;17.30;;;4.70;99.90;;;;;;5062978;28;20040;-84
2021/10/25 05:26:16;;;;;;;29.02;17.65;;;4.80;99.90;;;;;;5066057;28;20044;-83
2021/10/25 05:28:41;;;;;;;29.38;16.73;;;4.80;99.90;;;;;;5048105;28;20483;-82
2021/10/25 05:31:11;;;;;;;36.50;19.25;;;4.90;99.90;;;;;;5048774;28;20037;-83
2021/10/25 05:33:38;;;;;;;35.60;19.00;;;5.00;99.90;;;;;;5047913;28;20578;-82
2021/10/25 05:36:05;;;;;;;31.20;18.02;;;4.90;99.90;;;;;;5047281;28;20076;-82
2021/10/25 05:38:31;;;;;;;31.48;19.08;;;5.10;99.90;;;;;;5057905;28;20041;-82
2021/10/25 05:40:57;;;;;;;32.38;19.00;;;5.00;99.90;;;;;;5033094;28;20098;-82
2021/10/25 05:43:23;;;;;;;32.78;18.10;;;5.10;99.90;;;;;;5047235;28;20060;-83
2021/10/25 05:45:48;;;;;;;29.35;17.63;;;5.20;99.90;;;;;;5046076;28;20124;-83
2021/10/25 05:48:15;;;;;;;32.75;18.38;;;5.30;99.90;;;;;;5054432;28;20077;-82
2021/10/25 05:50:43;;;;;;;37.75;18.80;;;5.20;99.90;;;;;;5048080;28;20072;-83
2021/10/25 05:53:09;;;;;;;37.10;18.48;;;5.30;99.90;;;;;;5046947;28;20053;-83
2021/10/25 05:55:37;;;;;;;33.88;17.15;;;5.40;99.90;;;;;;5055162;28;20119;-84
2021/10/25 05:58:05;;;;;;;31.40;17.75;;;5.40;99.90;;;;;;5056911;28;20037;-82
2021/10/25 06:00:37;;;;;;;34.97;18.25;;;5.60;99.90;;;;;;5049008;28;20111;-84
2021/10/25 06:03:03;;;;;;;35.22;18.58;;;5.50;99.90;;;;;;5053030;28;20057;-84
2021/10/25 06:05:30;;;;;;;29.55;18.08;;;5.60;99.90;;;;;;5050016;28;20051;-83
2021/10/25 06:07:57;;;;;;;30.77;17.85;;;5.50;99.90;;;;;;5044822;28;20052;-83
2021/10/25 06:10:27;;;;;;;36.10;17.58;;;5.70;99.90;;;;;;5046981;28;20088;-84
2021/10/25 06:12:56;;;;;;;;;;;5.60;99.90;;;;;;5062371;28;20064;-84
2021/10/25 06:15:23;;;;;;;30.88;16.52;;;5.80;99.90;;;;;;5066029;28;19979;-84
2021/10/25 06:17:56;;;;;;;29.52;17.00;;;5.80;99.90;;;;;;5066781;28;20467;-84
2021/10/25 06:20:29;;;;;;;27.73;16.98;;;5.80;99.90;;;;;;5066053;28;20056;-84
2021/10/25 06:22:57;;;;;;;26.95;16.00;;;5.90;99.90;;;;;;5066506;28;20058;-83
2021/10/25 06:25:23;;;;;;;27.80;16.60;;;5.90;99.90;;;;;;5067657;28;20122;-83
2021/10/25 06:27:51;;;;;;;27.27;15.65;;;5.90;99.90;;;;;;5066448;28;20041;-83
2021/10/25 06:30:17;;;;;;;30.00;15.95;;;6.00;99.90;;;;;;5066058;28;20036;-85
2021/10/25 06:32:43;;;;;;;28.15;15.52;;;6.00;99.90;;;;;;5069667;28;20053;-85
2021/10/25 06:35:13;;;;;;;31.42;16.55;;;6.20;99.90;;;;;;5062837;28;20045;-85
2021/10/25 06:37:50;;;;;;;23.10;15.60;;;6.10;99.90;;;;;;5047262;28;20368;-85
2021/10/25 06:40:21;;;;;;;37.17;17.27;;;6.20;99.90;;;;;;5043666;28;20040;-83
2021/10/25 06:42:50;;;;;;;;;;;6.30;99.90;;;;;;5067937;28;20392;-83
2021/10/25 06:45:24;;;;;;;29.15;15.55;;;6.20;99.90;;;;;;5048296;28;19935;-85
2021/10/25 06:47:51;;;;;;;21.67;15.20;;;6.40;99.90;;;;;;5065837;28;20089;-84
2021/10/25 06:50:19;;;;;;;24.35;14.88;;;6.40;99.90;;;;;;5048824;28;20116;-85
2021/10/25 06:52:46;;;;;;;25.65;15.85;;;6.50;99.90;;;;;;5056042;28;20076;-84
2021/10/25 06:55:12;;;;;;;25.00;15.68;;;6.40;99.90;;;;;;5057609;28;20041;-84
2021/10/25 06:57:38;;;;;;;25.58;16.40;;;6.50;99.90;;;;;;5053645;28;20041;-84
2021/10/25 07:00:08;;;;;;;29.13;16.52;;;6.50;99.90;;;;;;5046265;28;20057;-84
2021/10/25 07:02:35;;;;;;;28.15;16.38;;;6.50;99.90;;;;;;5067030;28;20488;-84
2021/10/25 07:05:02;;;;;;;27.50;15.90;;;6.60;99.90;;;;;;5056945;28;20083;-85
2021/10/25 07:07:28;;;;;;;25.63;16.50;;;6.60;99.90;;;;;;5053939;28;20488;-84
2021/10/25 07:09:56;;;;;;;30.38;15.90;;;6.50;99.90;;;;;;5049239;28;20092;-84
2021/10/25 07:12:24;;;;;;;27.52;16.35;;;6.60;99.90;;;;;;5056212;28;20052;-84
2021/10/25 07:14:54;;;;;;;27.85;16.98;;;6.70;99.90;;;;;;5065499;28;20139;-85
2021/10/25 07:17:35;;;;;;;25.52;14.88;;;6.90;99.90;;;;;;5063473;28;20032;-85
2021/10/25 07:23:09;;;;;;;24.63;15.02;;;6.90;99.90;;;;;;5066018;28;20048;-85
2021/10/25 08:09:29;;;;;;;29.27;17.58;;;8.00;99.90;;;;;;5062337;28;20506;-85
2021/10/25 08:11:59;;;;;;;32.88;18.83;;;8.00;99.90;;;;;;5042406;28;20506;-83
2021/10/25 08:14:32;;;;;;;36.13;19.02;;;8.20;99.90;;;;;;5061994;28;20052;-83
2021/10/25 08:16:57;;;;;;;33.67;18.48;;;8.10;99.90;;;;;;5061851;28;20398;-83
2021/10/25 08:19:27;;;;;;;29.73;17.55;;;8.10;99.90;;;;;;5020903;28;20052;-83
2021/10/25 08:21:54;;;;;;;33.15;18.33;;;8.20;99.90;;;;;;5063294;28;20040;-83
2021/10/25 08:24:21;;;;;;;27.15;17.48;;;8.20;99.90;;;;;;5057968;28;20044;-84
2021/10/25 08:26:47;;;;;;;26.55;16.92;;;8.30;99.90;;;;;;5064064;28;20048;-83
2021/10/25 08:29:14;;;;;;;26.80;16.42;;;8.40;99.90;;;;;;5053069;28;20556;-84
2021/10/25 08:31:42;;;;;;;36.03;17.80;;;8.30;99.90;;;;;;5049022;28;20035;-84
2021/10/25 08:34:57;;;;;;;26.45;15.90;;;8.30;99.90;;;;;;5048702;28;20406;-84
2021/10/25 08:39:52;;;;;;;28.60;17.10;;;8.40;99.90;;;;;;5046492;28;20041;-84
2021/10/25 08:42:24;;;;;;;27.55;16.27;;;8.60;99.90;;;;;;5047938;28;20043;-84
2021/10/25 08:44:56;;;;;;;25.55;16.90;;;8.60;99.90;;;;;;5046349;28;20044;-84
2021/10/25 08:47:25;;;;;;;27.90;16.65;;;8.70;99.90;;;;;;5045390;28;20076;-83
2021/10/25 08:49:52;;;;;;;32.55;16.33;;;8.90;99.90;;;;;;5046398;28;20115;-83
2021/10/25 08:52:21;;;;;;;33.50;17.30;;;8.90;99.90;;;;;;5050328;28;20109;-83
2021/10/25 08:54:52;;;;;;;22.73;15.05;;;8.90;99.90;;;;;;5048603;28;20379;-83
2021/10/25 08:57:19;;;;;;;22.63;16.35;;;8.90;99.90;;;;;;5048428;28;20077;-83
2021/10/25 09:00:06;;;;;;;27.77;15.32;;;8.90;99.90;;;;;;5047134;28;20049;-87
2021/10/25 09:02:32;;;;;;;20.85;14.02;;;8.90;99.90;;;;;;5062539;28;20482;-83
2021/10/25 09:04:57;;;;;;;29.60;14.88;;;9.00;99.90;;;;;;5064679;28;20048;-83
2021/10/25 09:07:23;;;;;;;20.48;13.30;;;9.00;99.90;;;;;;5049816;28;20045;-83
2021/10/25 09:09:49;;;;;;;25.42;15.35;;;9.10;99.90;;;;;;5057380;28;20048;-84
2021/10/25 09:12:15;;;;;;;19.27;13.80;;;9.20;99.90;;;;;;5044431;28;20059;-84
2021/10/25 09:14:42;;;;;;;21.63;13.00;;;9.30;99.90;;;;;;5055913;28;20596;-84
2021/10/25 09:17:09;;;;;;;22.75;13.00;;;9.30;99.90;;;;;;5058393;28;20510;-82
2021/10/25 09:19:37;;;;;;;18.63;12.80;;;9.40;99.90;;;;;;5061664;28;20052;-83
2021/10/25 09:22:07;;;;;;;20.50;11.73;;;9.30;99.90;;;;;;5060497;28;20059;-83
2021/10/25 09:24:34;;;;;;;19.50;11.68;;;9.40;99.90;;;;;;5065890;28;20028;-82
2021/10/25 09:27:04;;;;;;;21.42;12.55;;;9.40;99.90;;;;;;5065589;28;20049;-85
2021/10/25 09:29:33;;;;;;;22.05;12.05;;;9.50;99.90;;;;;;5061421;28;20928;-81
2021/10/25 09:32:07;;;;;;;24.10;13.63;;;9.60;99.90;;;;;;5063181;28;20044;-84
2021/10/25 09:34:57;;;;;;;20.52;12.52;;;9.50;99.90;;;;;;5063620;28;20419;-84
2021/10/25 09:37:27;;;;;;;20.05;12.93;;;9.60;99.90;;;;;;5052838;28;20556;-84
2021/10/25 09:40:03;;;;;;;20.73;13.43;;;9.70;99.90;;;;;;5052143;28;20045;-84
2021/10/25 09:45:36;;;;;;;23.30;13.65;;;9.80;99.90;;;;;;5048929;28;20059;-84
2021/10/25 09:50:53;;;;;;;23.02;13.65;;;10.00;99.90;;;;;;5062708;28;20040;-84
2021/10/25 09:53:37;;;;;;;20.88;15.05;;;9.80;99.90;;;;;;5039686;28;20088;-84
2021/10/25 09:56:05;;;;;;;34.35;15.43;;;9.90;99.90;;;;;;5059903;28;20474;-84
2021/10/25 09:59:06;;;;;;;24.60;15.40;;;10.00;99.90;;;;;;5052556;28;20053;-83
2021/10/25 10:01:30;;;;;;;21.00;12.05;;;10.00;99.90;;;;;;5062724;28;20395;-84
2021/10/25 10:03:56;;;;;;;31.13;15.35;;;9.90;99.90;;;;;;5055615;28;20048;-83
2021/10/25 10:06:24;;;;;;;30.65;16.02;;;10.00;99.90;;;;;;5064003;28;20045;-84
2021/10/25 10:08:50;;;;;;;24.13;14.98;;;9.90;99.90;;;;;;5051670;28;20044;-84
2021/10/25 10:11:18;;;;;;;26.92;15.45;;;10.00;99.90;;;;;;5056114;28;20041;-86
2021/10/25 10:13:45;;;;;;;27.10;16.50;;;10.10;99.90;;;;;;5059704;28;20048;-86
2021/10/25 10:16:13;;;;;;;22.60;15.02;;;10.10;99.90;;;;;;5075565;28;20048;-86
2021/10/25 10:18:42;;;;;;;24.67;15.70;;;10.00;99.90;;;;;;5061302;28;20053;-85
2021/10/25 10:21:11;;;;;;;25.38;14.70;;;10.10;99.90;;;;;;5053383;28;20076;-85
2021/10/25 10:23:40;;;;;;;24.02;13.63;;;10.10;99.90;;;;;;5045213;28;20094;-85
2021/10/25 10:26:15;;;;;;;22.00;14.00;;;10.20;99.90;;;;;;5049615;28;20044;-86
2021/10/25 10:28:47;;;;;;;24.58;13.60;;;10.20;99.90;;;;;;5059227;28;20055;-85
2021/10/25 10:31:25;;;;;;;24.90;14.68;;;10.20;99.90;;;;;;5062898;28;20115;-84
2021/10/25 10:33:58;;;;;;;25.40;14.45;;;10.20;99.90;;;;;;5051768;28;20040;-84
2021/10/25 10:36:34;;;;;;;23.42;14.63;;;10.20;99.90;;;;;;5044993;28;20036;-84
2021/10/25 10:39:16;;;;;;;24.75;15.15;;;10.30;99.90;;;;;;5060475;28;20123;-84
2021/10/25 10:41:51;;;;;;;30.92;18.20;;;10.20;99.90;;;;;;5059568;28;20045;-85
2021/10/25 10:44:19;;;;;;;31.73;18.85;;;10.20;99.90;;;;;;5047812;28;20049;-84
2021/10/25 10:46:57;;;;;;;33.03;20.05;;;10.30;99.90;;;;;;5044696;28;20052;-85
2021/10/25 10:49:45;;;;;;;34.88;20.60;;;10.40;99.90;;;;;;5054723;28;20161;-85
2021/10/25 10:55:03;;;;;;;30.85;17.38;;;10.50;99.90;;;;;;5052544;28;20048;-85
2021/10/25 11:00:22;;;;;;;19.13;14.23;;;10.60;99.90;;;;;;5060993;28;20045;-85
2021/10/25 11:02:55;;;;;;;25.25;14.38;;;10.60;99.90;;;;;;5052244;28;20052;-85
2021/10/25 11:05:36;;;;;;;20.23;13.27;;;10.60;99.90;;;;;;5048480;28;20394;-85
2021/10/25 11:08:35;;;;;;;27.20;14.38;;;10.60;99.90;;;;;;5059398;28;20391;-85
2021/10/25 11:11:13;;;;;;;30.95;14.35;;;10.70;99.90;;;;;;5016414;28;20052;-85
2021/10/25 11:13:49;;;;;;;25.00;14.45;;;10.60;99.90;;;;;;5061738;28;20044;-85
2021/10/25 11:16:23;;;;;;;21.33;12.55;;;10.50;99.90;;;;;;5061761;28;20060;-85
2021/10/25 11:18:55;;;;;;;28.38;12.50;;;10.60;99.90;;;;;;5063057;28;20087;-85
2021/10/25 11:21:29;;;;;;;19.88;11.98;;;10.40;99.90;;;;;;5044137;28;20111;-85
2021/10/25 11:23:57;;;;;;;22.30;11.75;;;10.50;99.90;;;;;;5062673;28;20114;-85
2021/10/25 11:26:37;;;;;;;17.67;11.95;;;10.50;99.90;;;;;;5058536;28;20427;-85
2021/10/25 11:29:13;;;;;;;34.55;14.40;;;10.50;99.90;;;;;;5056899;28;20052;-85
2021/10/25 11:31:48;;;;;;;24.15;11.63;;;10.40;99.90;;;;;;5068285;28;20449;-85
2021/10/25 11:34:21;;;;;;;24.48;12.20;;;10.30;99.90;;;;;;5038087;28;20049;-85
2021/10/25 11:37:16;;;;;;;20.75;11.23;;;10.40;99.90;;;;;;5046598;28;20139;-85
2021/10/25 11:39:52;;;;;;;17.60;10.98;;;10.40;99.90;;;;;;5052943;28;20043;-84
2021/10/25 11:42:24;;;;;;;22.40;11.50;;;10.40;99.90;;;;;;5064570;28;20040;-85
2021/10/25 11:44:53;;;;;;;18.70;11.35;;;10.50;99.90;;;;;;5045921;28;20045;-85
2021/10/25 11:47:27;;;;;;;28.10;11.95;;;10.40;99.90;;;;;;5058254;28;20271;-83
2021/10/25 11:49:57;;;;;;;17.98;11.20;;;10.50;99.90;;;;;;5049188;28;20049;-83
2021/10/25 11:52:23;;;;;;;21.85;11.68;;;10.50;99.90;;;;;;5061140;28;20394;-84
2021/10/25 11:54:51;;;;;;;19.05;12.32;;;10.50;99.90;;;;;;5037750;28;20049;-84
2021/10/25 11:57:18;;;;;;;24.83;11.77;;;10.60;99.90;;;;;;5048768;28;20041;-84
2021/10/25 11:59:58;;;;;;;20.25;11.63;;;10.50;99.90;;;;;;5045116;28;20400;-85
2021/10/25 12:02:25;;;;;;;22.25;11.68;;;10.60;99.90;;;;;;5063806;28;20053;-86
2021/10/25 12:04:51;;;;;;;25.05;11.60;;;10.60;99.90;;;;;;5064315;28;20041;-86
2021/10/25 12:07:17;;;;;;;19.88;12.00;;;10.60;99.90;;;;;;5059633;28;20664;-85
2021/10/25 12:09:43;;;;;;;15.15;11.15;;;10.60;99.90;;;;;;5046469;28;20036;-86
2021/10/25 12:12:14;;;;;;;17.23;11.65;;;10.70;99.90;;;;;;5063545;28;20460;-85
2021/10/25 12:14:43;;;;;;;27.48;12.52;;;10.60;99.90;;;;;;5071231;28;20064;-85
2021/10/25 12:17:14;;;;;;;18.65;10.93;;;10.80;99.90;;;;;;5062842;28;20048;-85
2021/10/25 12:19:44;;;;;;;22.98;12.00;;;10.70;99.90;;;;;;5065922;28;20123;-89
2021/10/25 12:22:17;;;;;;;17.50;10.43;;;10.70;99.90;;;;;;5039361;28;20083;-87
2021/10/25 12:24:45;;;;;;;15.38;10.25;;;10.80;99.90;;;;;;5059067;28;20041;-85
2021/10/25 12:27:42;;;;;;;13.95;10.00;;;10.80;99.90;;;;;;5049571;28;20045;-86
2021/10/25 12:30:16;;;;;;;14.55;8.75;;;10.80;99.90;;;;;;5056887;28;20078;-86
2021/10/25 12:32:54;;;;;;;16.75;9.90;;;10.90;99.90;;;;;;5062533;28;20545;-85
2021/10/25 12:35:33;;;;;;;12.30;9.07;;;10.90;99.90;;;;;;5050110;28;20045;-86
2021/10/25 12:38:05;;;;;;;13.60;9.77;;;11.00;99.90;;;;;;5037764;28;20059;-86
2021/10/25 12:40:47;;;;;;;17.17;9.50;;;11.00;99.90;;;;;;5036061;28;20037;-85
2021/10/25 12:43:14;;;;;;;17.30;10.60;;;11.10;99.90;;;;;;5048026;28;20392;-86
2021/10/25 12:45:45;;;;;;;19.55;10.57;;;11.00;99.90;;;;;;5053451;28;20052;-86
2021/10/25 12:48:16;;;;;;;15.40;10.10;;;11.10;99.90;;;;;;5060059;28;20071;-84
2021/10/25 12:50:45;;;;;;;19.13;10.98;;;11.10;99.90;;;;;;5046141;28;20064;-84
2021/10/25 12:53:13;;;;;;;20.58;11.20;;;11.10;99.90;;;;;;5047278;28;20198;-85
2021/10/25 12:55:42;;;;;;;13.77;9.88;;;11.20;99.90;;;;;;5054418;28;20037;-84
2021/10/25 12:58:10;;;;;;;18.10;10.10;;;11.20;99.90;;;;;;5051087;28;20048;-85
2021/10/25 13:00:37;;;;;;;12.38;8.90;;;11.30;99.90;;;;;;5035590;28;20053;-85
2021/10/25 13:03:09;;;;;;;12.68;8.45;;;11.40;99.90;;;;;;5051919;28;20099;-84
2021/10/25 13:05:37;;;;;;;15.00;7.95;;;11.50;99.90;;;;;;5052733;28;20043;-85
2021/10/25 13:08:06;;;;;;;10.40;8.40;;;11.60;99.90;;;;;;5070342;28;20676;-87
2021/10/25 13:10:37;;;;;;;12.40;8.52;;;11.60;99.90;;;;;;5059295;28;20202;-88
2021/10/25 13:13:05;;;;;;;14.68;8.25;;;11.60;99.90;;;;;;5064066;28;20442;-88
2021/10/25 13:15:32;;;;;;;13.88;7.70;;;11.60;99.90;;;;;;5061040;28;20048;-88
2021/10/25 13:18:00;;;;;;;12.43;8.35;;;11.60;99.90;;;;;;5058377;28;20045;-89
2021/10/25 13:20:28;;;;;;;10.23;7.95;;;11.50;99.90;;;;;;5037287;28;20040;-88
2021/10/25 13:22:58;;;;;;;11.65;8.20;;;11.60;99.90;;;;;;5043966;28;20037;-89
2021/10/25 13:25:24;;;;;;;13.13;8.70;;;11.60;99.90;;;;;;5057648;28;20041;-88
2021/10/25 13:27:51;;;;;;;12.80;8.50;;;11.60;99.90;;;;;;5048043;28;20040;-90
2021/10/25 13:30:20;;;;;;;11.18;8.32;;;11.60;99.90;;;;;;5053433;28;20051;-89
2021/10/25 13:32:46;;;;;;;17.00;9.32;;;11.60;99.90;;;;;;5047539;28;20036;-89
2021/10/25 13:35:13;;;;;;;19.35;9.70;;;11.60;99.90;;;;;;5045839;28;20122;-89
2021/10/25 13:37:39;;;;;;;12.90;9.27;;;11.60;99.90;;;;;;5045380;28;20036;-89
2021/10/25 13:40:06;;;;;;;15.55;10.05;;;11.60;99.90;;;;;;5060826;28;20371;-89
2021/10/25 13:42:34;;;;;;;22.13;10.30;;;11.60;99.90;;;;;;5044454;28;21004;-90
2021/10/25 13:44:59;;;;;;;17.55;11.13;;;11.50;99.90;;;;;;5038833;28;20047;-90
2021/10/25 13:47:28;;;;;;;17.10;10.15;;;11.50;99.90;;;;;;5031053;28;20033;-89
2021/10/25 13:49:55;;;;;;;16.30;10.25;;;11.50;99.90;;;;;;5052178;28;20397;-89
2021/10/25 13:52:22;;;;;;;17.33;10.77;;;11.50;99.90;;;;;;5065012;28;20044;-89
2021/10/25 13:54:48;;;;;;;18.08;10.55;;;11.50;99.90;;;;;;5049528;28;20045;-88
2021/10/25 13:57:17;;;;;;;16.55;11.43;;;11.50;99.90;;;;;;5060131;28;20044;-89
2021/10/25 13:59:43;;;;;;;31.13;11.67;;;11.60;99.90;;;;;;5038071;28;20053;-89
2021/10/25 14:02:12;;;;;;;20.15;11.43;;;11.70;99.90;;;;;;5056145;28;20298;-89
2021/10/25 14:04:50;;;;;;;19.43;11.80;;;11.60;99.90;;;;;;5053016;28;20056;-89
2021/10/25 14:07:19;;;;;;;23.55;12.25;;;11.70;99.90;;;;;;5049263;28;20052;-89
2021/10/25 14:09:57;;;;;;;18.97;11.13;;;11.70;99.90;;;;;;5032512;28;20045;-88
2021/10/25 14:12:26;;;;;;;17.85;11.65;;;11.70;99.90;;;;;;5042335;28;20983;-89
2021/10/25 14:14:58;;;;;;;22.10;12.52;;;11.60;99.90;;;;;;5064709;28;20059;-88